createdAt,value
2023-05-04T00:01:02.094Z,4.57
2023-05-04T00:05:56.058Z,3.47
2023-05-04T00:10:48.759Z,5.93
2023-05-04T00:15:42.383Z,3.80
2023-05-04T00:20:35.132Z,5.63
2023-05-04T00:25:28.651Z,3.47
2023-05-04T00:30:22.060Z,4.00
2023-05-04T00:35:15.968Z,3.97
2023-05-04T00:40:11.968Z,3.10
2023-05-04T00:45:06.597Z,4.40
2023-05-04T00:49:59.147Z,4.55
2023-05-04T00:54:53.631Z,3.33
2023-05-04T00:59:48.241Z,4.00
2023-05-04T01:04:41.797Z,3.88
2023-05-04T01:10:05.079Z,3.72
2023-05-04T01:14:59.573Z,2.80
2023-05-04T01:19:54.181Z,4.13
2023-05-04T01:24:47.431Z,3.83
2023-05-04T01:29:50.311Z,3.38
2023-05-04T01:34:43.192Z,2.60
2023-05-04T01:39:36.906Z,3.50
2023-05-04T01:44:29.163Z,2.58
2023-05-04T01:49:23.805Z,4.60
2023-05-04T01:54:17.012Z,2.47
2023-05-04T01:59:10.374Z,2.80
2023-05-04T02:04:02.774Z,2.03
2023-05-04T02:09:00.172Z,2.53
2023-05-04T02:13:52.693Z,2.10
2023-05-04T02:18:44.858Z,2.75
2023-05-04T02:23:38.319Z,3.08
2023-05-04T02:28:30.882Z,2.08
2023-05-04T02:33:23.233Z,2.45
2023-05-04T02:38:16.115Z,2.22
2023-05-04T02:43:09.296Z,3.15
2023-05-04T02:48:02.734Z,2.33
2023-05-04T02:52:55.833Z,2.15
2023-05-04T02:57:50.296Z,3.58
2023-05-04T03:02:42.759Z,2.10
2023-05-04T03:07:35.904Z,2.85
2023-05-04T03:12:29.118Z,2.17
2023-05-04T03:17:22.078Z,1.67
2023-05-04T03:22:15.255Z,1.48
2023-05-04T03:27:09.865Z,2.03
2023-05-04T03:32:05.181Z,1.80
2023-05-04T03:36:58.377Z,2.03
2023-05-04T03:41:53.096Z,1.70
2023-05-04T03:46:46.156Z,2.30
2023-05-04T03:51:39.823Z,1.63
2023-05-04T03:56:34.217Z,2.72
2023-05-04T04:01:28.218Z,2.38
2023-05-04T04:06:23.329Z,2.05
2023-05-04T04:11:17.137Z,1.70
2023-05-04T04:16:09.731Z,1.80
2023-05-04T04:21:03.987Z,2.83
2023-05-04T04:25:56.619Z,2.03
2023-05-04T04:30:50.115Z,1.65
2023-05-04T04:35:43.085Z,1.80
2023-05-04T04:40:37.866Z,2.10
2023-05-04T04:45:33.622Z,1.73
2023-05-04T04:50:26.825Z,2.10
2023-05-04T04:55:20.932Z,2.28
2023-05-04T05:00:16.286Z,1.95
2023-05-04T05:05:09.617Z,2.08
2023-05-04T05:10:03.225Z,1.73
2023-05-04T05:14:56.064Z,1.48
2023-05-04T05:19:50.665Z,16.80
2023-05-04T05:24:44.501Z,7.15
2023-05-04T05:29:37.813Z,4.63
2023-05-04T05:34:31.883Z,6.95
2023-05-04T05:39:25.902Z,13.18
2023-05-04T05:44:19.386Z,8.75
2023-05-04T05:49:12.120Z,8.00
2023-05-04T05:54:06.129Z,8.20
2023-05-04T05:58:59.515Z,3.58
2023-05-04T06:03:52.778Z,8.07
2023-05-04T06:08:46.970Z,4.13
2023-05-04T06:13:40.239Z,6.28
2023-05-04T06:18:32.975Z,5.78
2023-05-04T06:23:27.654Z,5.65
2023-05-04T06:28:21.336Z,8.80
2023-05-04T06:33:13.939Z,3.78
2023-05-04T06:38:07.841Z,3.78
2023-05-04T06:43:01.077Z,4.30
2023-05-04T06:47:53.916Z,5.55
2023-05-04T06:52:47.141Z,3.67
2023-05-04T06:57:39.410Z,1.60
2023-05-04T07:02:33.705Z,2.35
2023-05-04T07:07:28.187Z,3.20
2023-05-04T07:12:21.096Z,6.40
2023-05-04T07:17:14.741Z,3.47
2023-05-04T07:22:08.940Z,3.58
2023-05-04T07:27:06.233Z,3.45
2023-05-04T07:31:59.170Z,4.03
2023-05-04T07:36:56.439Z,2.85
2023-05-04T07:41:51.800Z,3.67
2023-05-04T07:46:45.903Z,3.58
2023-05-04T07:51:39.693Z,4.82
2023-05-04T07:56:32.820Z,3.78
2023-05-04T08:01:26.643Z,3.05
2023-05-04T08:06:21.110Z,2.42
2023-05-04T08:11:20.668Z,3.30
2023-05-04T08:16:14.066Z,4.63
2023-05-04T08:21:07.204Z,4.03
2023-05-04T08:26:03.575Z,2.97
2023-05-04T08:30:57.020Z,2.47
2023-05-04T08:35:50.494Z,3.60
2023-05-04T08:40:44.065Z,4.38
2023-05-04T08:45:41.780Z,2.45
2023-05-04T08:50:35.252Z,5.57
2023-05-04T08:55:32.804Z,5.70
2023-05-04T09:00:26.587Z,3.22
2023-05-04T09:05:20.677Z,5.32
2023-05-04T09:10:14.228Z,3.70
2023-05-04T09:15:30.076Z,3.53
2023-05-04T09:20:24.171Z,3.03
2023-05-04T09:25:18.008Z,2.47
2023-05-04T09:30:13.312Z,4.70
2023-05-04T09:35:06.931Z,3.30
2023-05-04T09:40:01.311Z,2.40
2023-05-04T09:45:05.516Z,6.43
2023-05-04T09:50:00.165Z,2.75
2023-05-04T09:54:53.530Z,4.93
2023-05-04T09:59:47.158Z,4.28
2023-05-04T10:04:41.292Z,3.63
2023-05-04T10:09:35.214Z,5.30
2023-05-04T10:14:32.597Z,3.95
2023-05-04T10:19:47.631Z,4.97
2023-05-04T10:25:08.111Z,3.10
2023-05-04T10:30:02.269Z,6.67
2023-05-04T10:35:09.170Z,3.72
2023-05-04T10:40:01.855Z,5.03
2023-05-04T10:44:56.478Z,4.00
2023-05-04T10:49:48.720Z,3.95
2023-05-04T10:54:42.785Z,3.30
2023-05-04T10:59:36.933Z,3.65
2023-05-04T11:04:30.434Z,2.92
2023-05-04T11:09:23.435Z,2.83
2023-05-04T11:14:27.625Z,2.88
2023-05-04T11:19:21.288Z,3.70
2023-05-04T11:24:14.293Z,3.72
2023-05-04T11:29:16.450Z,3.20
2023-05-04T11:34:09.622Z,3.35
2023-05-04T11:39:06.041Z,4.35
2023-05-04T11:44:00.945Z,8.82
2023-05-04T11:48:53.732Z,4.20
2023-05-04T11:53:47.542Z,6.10
2023-05-04T11:58:41.446Z,8.25
2023-05-04T12:03:51.982Z,7.40
2023-05-04T12:08:46.311Z,5.28
2023-05-04T12:13:39.775Z,6.93
2023-05-04T12:18:33.208Z,9.07
2023-05-04T12:23:26.229Z,7.53
2023-05-04T12:28:19.676Z,6.72
2023-05-04T12:33:12.813Z,3.67
2023-05-04T12:38:06.711Z,3.13
2023-05-04T12:42:59.308Z,2.92
2023-05-04T12:47:52.419Z,3.38
2023-05-04T12:52:45.925Z,4.97
2023-05-04T12:57:40.132Z,2.78
2023-05-04T13:02:33.465Z,2.25
2023-05-04T13:07:27.863Z,3.17
2023-05-04T13:12:21.386Z,2.95
2023-05-04T13:17:15.598Z,3.65
2023-05-04T13:22:08.527Z,6.80
2023-05-04T13:27:03.632Z,2.45
2023-05-04T13:31:57.772Z,6.05
2023-05-04T13:36:51.688Z,4.72
2023-05-04T13:41:45.356Z,3.25
2023-05-04T13:46:39.470Z,2.05
2023-05-04T13:51:32.693Z,2.53
2023-05-04T13:56:26.117Z,2.75
2023-05-04T14:01:22.847Z,1.90
2023-05-04T14:06:16.286Z,4.05
2023-05-04T14:11:09.351Z,3.25
2023-05-04T14:16:02.726Z,3.53
2023-05-04T14:20:56.374Z,4.78
2023-05-04T14:25:56.205Z,12.55
2023-05-04T14:30:49.376Z,22.53
2023-05-04T14:35:45.548Z,18.95
2023-05-04T14:40:39.532Z,20.17
2023-05-04T14:45:34.213Z,12.82
2023-05-04T14:50:26.870Z,15.52
2023-05-04T14:55:18.852Z,9.35
2023-05-04T15:00:13.952Z,8.50
2023-05-04T15:05:08.097Z,9.23
2023-05-04T15:10:01.703Z,9.15
2023-05-04T15:14:59.221Z,9.88
2023-05-04T15:19:52.608Z,5.65
2023-05-04T15:24:46.119Z,6.25
2023-05-04T15:29:39.074Z,5.07
2023-05-04T15:34:32.174Z,4.30
2023-05-04T15:39:27.956Z,6.43
2023-05-04T15:44:24.009Z,4.72
2023-05-04T15:49:17.811Z,4.07
2023-05-04T15:54:10.413Z,5.70
2023-05-04T15:59:03.152Z,4.88
2023-05-04T16:03:57.272Z,4.55
2023-05-04T16:08:51.050Z,4.85
2023-05-04T16:13:44.654Z,5.85
2023-05-04T16:18:37.614Z,2.90
2023-05-04T16:23:31.169Z,4.90
2023-05-04T16:28:24.604Z,5.93
2023-05-04T16:33:19.425Z,4.78
2023-05-04T16:38:15.832Z,4.72
2023-05-04T16:43:17.250Z,3.88
2023-05-04T16:48:10.365Z,4.97
2023-05-04T16:53:03.887Z,3.20
2023-05-04T16:57:58.275Z,2.70
2023-05-04T17:02:52.251Z,4.30
2023-05-04T17:07:44.948Z,3.75
2023-05-04T17:12:41.248Z,2.08
2023-05-04T17:17:34.502Z,3.28
2023-05-04T17:22:29.206Z,5.22
2023-05-04T17:27:21.946Z,3.10
2023-05-04T17:32:15.736Z,4.13
2023-05-04T17:37:08.874Z,3.97
2023-05-04T17:42:02.971Z,5.68
2023-05-04T17:46:56.764Z,3.25
2023-05-04T17:51:51.167Z,5.40
2023-05-04T17:56:43.393Z,3.90
2023-05-04T18:01:40.849Z,3.22
2023-05-04T18:06:34.597Z,3.65
2023-05-04T18:11:27.251Z,3.05
2023-05-04T18:16:20.836Z,3.58
2023-05-04T18:21:14.229Z,3.58
2023-05-04T18:26:06.902Z,3.03
2023-05-04T18:30:59.591Z,2.55
2023-05-04T18:35:53.448Z,4.95
2023-05-04T18:40:46.816Z,4.38
2023-05-04T18:45:40.540Z,7.05
2023-05-04T18:50:33.565Z,6.03
2023-05-04T18:55:25.737Z,7.38
2023-05-04T19:00:19.620Z,6.55
2023-05-04T19:05:14.907Z,16.10
2023-05-04T19:10:10.173Z,13.25
2023-05-04T19:15:04.646Z,7.10
2023-05-04T19:19:58.894Z,11.82
2023-05-04T19:24:55.702Z,14.00
2023-05-04T19:29:48.916Z,10.73
2023-05-04T19:34:43.717Z,11.85
2023-05-04T19:39:37.892Z,12.75
2023-05-04T19:44:30.644Z,9.93
2023-05-04T19:49:25.442Z,13.40
2023-05-04T19:54:19.349Z,13.15
2023-05-04T19:59:12.634Z,19.92
2023-05-04T20:04:09.087Z,18.75
2023-05-04T20:09:04.161Z,14.02
2023-05-04T20:13:58.371Z,10.77
2023-05-04T20:18:52.851Z,9.35
2023-05-04T20:23:48.256Z,12.32
2023-05-04T20:28:46.222Z,8.55
2023-05-04T20:33:39.176Z,14.10
2023-05-04T20:38:33.872Z,8.45
2023-05-04T20:43:27.892Z,8.35
2023-05-04T20:48:21.683Z,10.73
2023-05-04T20:53:15.896Z,6.60
2023-05-04T20:58:10.248Z,9.20
2023-05-04T21:03:03.194Z,7.50
2023-05-04T21:08:00.273Z,8.63
2023-05-04T21:12:59.253Z,8.68
2023-05-04T21:17:58.138Z,10.48
2023-05-04T21:22:53.932Z,8.02
2023-05-04T21:27:50.236Z,7.20
2023-05-04T21:32:48.830Z,6.75
2023-05-04T21:37:49.489Z,9.50
2023-05-04T21:42:49.244Z,7.28
2023-05-04T21:47:46.921Z,6.32
2023-05-04T21:52:47.035Z,6.72
2023-05-04T21:58:09.273Z,8.63
2023-05-04T22:03:15.968Z,5.30
2023-05-04T22:08:14.146Z,6.60
2023-05-04T22:13:13.308Z,6.28
2023-05-04T22:18:10.294Z,10.32
2023-05-04T22:23:06.531Z,5.30
2023-05-04T22:28:00.757Z,7.15
2023-05-04T22:32:54.417Z,7.70
2023-05-04T22:37:49.608Z,5.93
2023-05-04T22:42:46.702Z,4.68
2023-05-04T22:47:40.917Z,4.75
2023-05-04T22:52:34.295Z,8.32
2023-05-04T22:57:27.401Z,8.07
2023-05-04T23:02:20.979Z,5.07
2023-05-04T23:07:15.294Z,10.75
2023-05-04T23:12:09.487Z,7.03
2023-05-04T23:17:03.253Z,5.00
2023-05-04T23:22:00.686Z,5.30
2023-05-04T23:26:54.556Z,6.95
2023-05-04T23:31:47.617Z,5.15
2023-05-04T23:36:40.569Z,4.55
2023-05-04T23:41:35.102Z,6.70
2023-05-04T23:46:27.829Z,5.18
2023-05-04T23:51:21.800Z,6.03
2023-05-04T23:56:15.108Z,4.82
